Time;durP1;ratioP1;P1;durP2;ratioP2;P2;SDS_P1;SDS_P2;PMS_P1;PMS_P2;Temp;Humidity;BMP_temperature;BMP_pressure;BME280_temperature;BME280_humidity;BME280_pressure;Samples;Min_cycle;Max_cycle;Signal;HPM_P1;HPM_P2
2024/04/18 00:00:14;;;;;;;10.97;6.97;;;;;;;;;;5348198;26;21227;-83
2024/04/18 00:03:18;;;;;;;11.43;6.90;;;;;;;;;;5348456;26;20216;-83
2024/04/18 00:06:23;;;;;;;8.80;6.93;;;;;;;;;;5347861;26;20525;-83
2024/04/18 00:09:27;;;;;;;12.03;8.10;;;;;;;;;;5348004;26;20283;-83
2024/04/18 00:12:31;;;;;;;10.40;8.53;;;;;;;;;;5347737;26;20593;-83
2024/04/18 00:15:36;;;;;;;9.47;7.63;;;;;;;;;;5348196;26;20228;-83
2024/04/18 00:18:40;;;;;;;10.23;7.30;;;;;;;;;;5347281;26;20216;-83
2024/04/18 00:22:04;;;;;;;10.07;7.27;;;;;;;;;;5347315;26;20272;-83
2024/04/18 00:25:10;;;;;;;11.20;7.27;;;;;;;;;;5347350;26;20222;-84
2024/04/18 00:28:29;;;;;;;9.90;7.40;;;;;;;;;;5346357;26;20225;-83
2024/04/18 00:31:52;;;;;;;9.00;6.90;;;;;;;;;;5347299;26;20613;-83
2024/04/18 00:35:11;;;;;;;9.07;7.27;;;;;;;;;;5346206;26;20232;-84
2024/04/18 00:38:15;;;;;;;9.13;7.47;;;;;;;;;;5351268;26;20272;-83
2024/04/18 00:41:21;;;;;;;11.83;7.87;;;;;;;;;;5347006;26;20228;-84
2024/04/18 00:44:34;;;;;;;8.53;6.90;;;;;;;;;;5347250;26;20221;-84
2024/04/18 00:47:51;;;;;;;8.27;6.80;;;;;;;;;;5328893;26;20225;-84
2024/04/18 00:51:02;;;;;;;8.80;6.80;;;;;;;;;;5347019;26;20221;-83
2024/04/18 00:54:07;;;;;;;11.27;7.40;;;;;;;;;;5346812;26;20224;-84
2024/04/18 00:57:12;;;;;;;11.13;7.10;;;;;;;;;;5346415;26;20578;-84
2024/04/18 01:00:17;;;;;;;10.30;7.33;;;;;;;;;;5346529;26;20276;-83
2024/04/18 01:03:30;;;;;;;8.83;6.90;;;;;;;;;;5346705;26;20225;-83
2024/04/18 01:06:44;;;;;;;10.30;8.00;;;;;;;;;;5346254;26;20209;-83
2024/04/18 01:09:52;;;;;;;11.77;7.33;;;;;;;;;;5344645;26;20284;-83
2024/04/18 01:13:00;;;;;;;9.63;8.03;;;;;;;;;;5342163;26;20271;-83
2024/04/18 01:16:23;;;;;;;10.80;8.43;;;;;;;;;;5342468;26;20276;-83
2024/04/18 01:19:27;;;;;;;12.97;8.17;;;;;;;;;;5341801;26;20291;-83
2024/04/18 01:22:32;;;;;;;11.90;8.00;;;;;;;;;;5341820;26;20284;-84
2024/04/18 01:25:36;;;;;;;12.47;8.57;;;;;;;;;;5338365;26;20228;-84
2024/04/18 01:28:40;;;;;;;9.83;7.50;;;;;;;;;;5348947;26;20562;-83
2024/04/18 01:31:45;;;;;;;10.20;8.30;;;;;;;;;;5349812;26;20359;-83
2024/04/18 01:34:49;;;;;;;11.30;8.70;;;;;;;;;;5349314;26;20570;-83
2024/04/18 01:37:53;;;;;;;9.97;7.80;;;;;;;;;;5349511;26;20272;-83
2024/04/18 01:40:58;;;;;;;11.87;7.63;;;;;;;;;;5349504;26;20298;-84
2024/04/18 01:44:21;;;;;;;10.17;7.53;;;;;;;;;;5349573;26;20705;-84
2024/04/18 01:48:00;;;;;;;10.00;8.13;;;;;;;;;;5367882;26;20267;-84
2024/04/18 01:51:18;;;;;;;9.73;7.83;;;;;;;;;;5348310;26;20225;-83
2024/04/18 01:54:22;;;;;;;12.57;7.93;;;;;;;;;;5348391;26;20217;-84
2024/04/18 01:57:39;;;;;;;9.97;8.00;;;;;;;;;;5348242;26;20279;-83
2024/04/18 02:01:02;;;;;;;12.33;7.67;;;;;;;;;;5349204;26;20724;-83
2024/04/18 02:04:06;;;;;;;9.60;7.47;;;;;;;;;;5349196;26;20221;-84
2024/04/18 02:07:11;;;;;;;12.57;8.00;;;;;;;;;;5349159;26;20268;-84
2024/04/18 02:10:35;;;;;;;10.37;8.40;;;;;;;;;;5349146;26;20280;-83
2024/04/18 02:13:39;;;;;;;10.90;8.23;;;;;;;;;;5349160;26;20225;-83
2024/04/18 02:16:43;;;;;;;9.63;7.33;;;;;;;;;;5348651;26;20271;-84
2024/04/18 02:20:00;;;;;;;8.50;7.20;;;;;;;;;;5347830;26;20283;-84
2024/04/18 02:23:22;;;;;;;8.97;7.50;;;;;;;;;;5349088;26;20272;-84
2024/04/18 02:26:26;;;;;;;10.90;8.60;;;;;;;;;;5352128;26;20225;-84
2024/04/18 02:29:30;;;;;;;10.60;8.30;;;;;;;;;;5349353;26;20287;-84
2024/04/18 02:32:38;;;;;;;9.30;7.57;;;;;;;;;;5349124;26;20558;-84
2024/04/18 02:35:51;;;;;;;9.77;7.90;;;;;;;;;;5349210;26;20224;-84
2024/04/18 02:39:14;;;;;;;10.40;7.10;;;;;;;;;;5348994;26;20264;-83
2024/04/18 02:42:18;;;;;;;10.70;7.53;;;;;;;;;;5349096;26;20221;-84
2024/04/18 02:45:35;;;;;;;10.93;8.27;;;;;;;;;;5348837;26;20268;-83
2024/04/18 02:48:58;;;;;;;11.47;8.67;;;;;;;;;;5348575;26;20272;-83
2024/04/18 02:52:03;;;;;;;10.13;8.13;;;;;;;;;;5348466;26;20256;-83
2024/04/18 02:55:22;;;;;;;13.13;8.50;;;;;;;;;;5348598;26;20291;-83
2024/04/18 02:58:32;;;;;;;9.90;8.20;;;;;;;;;;5347304;26;20224;-83
2024/04/18 03:01:54;;;;;;;11.23;8.47;;;;;;;;;;5348382;26;20225;-84
2024/04/18 03:04:58;;;;;;;10.53;8.50;;;;;;;;;;5348858;26;20220;-84
2024/04/18 03:08:03;;;;;;;10.97;8.80;;;;;;;;;;5347465;26;20275;-84
2024/04/18 03:11:22;;;;;;;9.83;7.67;;;;;;;;;;5347415;26;20566;-83
2024/04/18 03:14:44;;;;;;;10.43;8.43;;;;;;;;;;5348332;26;20224;-84
2024/04/18 03:17:53;;;;;;;12.50;9.17;;;;;;;;;;5348367;26;20276;-83
2024/04/18 03:21:12;;;;;;;16.10;8.60;;;;;;;;;;5419305;21;20339;-82
2024/04/18 03:24:29;;;;;;;13.33;8.40;;;;;;;;;;5330030;26;20232;-80
2024/04/18 03:27:33;;;;;;;10.57;8.63;;;;;;;;;;5311238;26;20225;-81
2024/04/18 03:30:40;;;;;;;13.10;9.20;;;;;;;;;;5349038;26;20795;-82
2024/04/18 03:33:46;;;;;;;12.67;10.87;;;;;;;;;;5330393;26;20228;-81
2024/04/18 03:36:52;;;;;;;10.93;8.60;;;;;;;;;;5350328;26;20275;-82
2024/04/18 03:40:08;;;;;;;12.10;8.50;;;;;;;;;;5312625;26;20279;-81
2024/04/18 03:43:18;;;;;;;11.87;7.93;;;;;;;;;;5349897;26;20716;-81
2024/04/18 03:46:25;;;;;;;9.60;8.13;;;;;;;;;;5349707;26;20260;-81
2024/04/18 03:49:36;;;;;;;10.17;8.13;;;;;;;;;;5331399;26;20279;-81
2024/04/18 03:52:44;;;;;;;12.00;8.33;;;;;;;;;;5349103;26;20292;-81
2024/04/18 03:56:08;;;;;;;9.37;6.73;;;;;;;;;;5349162;26;20225;-81
2024/04/18 03:59:13;;;;;;;8.50;6.90;;;;;;;;;;5328654;26;20224;-81
2024/04/18 04:02:18;;;;;;;10.10;7.07;;;;;;;;;;5329183;26;20228;-81
2024/04/18 04:05:23;;;;;;;8.80;7.27;;;;;;;;;;5309532;26;20791;-82
2024/04/18 04:08:28;;;;;;;10.10;7.43;;;;;;;;;;5328876;26;20268;-80
2024/04/18 04:11:50;;;;;;;8.17;6.67;;;;;;;;;;5329136;26;20229;-81
2024/04/18 04:14:56;;;;;;;10.20;7.10;;;;;;;;;;5350068;26;20213;-81
2024/04/18 04:18:00;;;;;;;9.33;7.33;;;;;;;;;;5309177;26;20267;-81
2024/04/18 04:21:22;;;;;;;9.33;7.40;;;;;;;;;;5332842;26;20268;-80
2024/04/18 04:24:27;;;;;;;10.30;7.57;;;;;;;;;;5329065;26;20221;-82
2024/04/18 04:27:55;;;;;;;11.93;7.70;;;;;;;;;;5335125;26;20288;-80
2024/04/18 04:31:00;;;;;;;13.67;7.77;;;;;;;;;;5348778;26;20275;-80
2024/04/18 04:34:07;;;;;;;11.37;6.90;;;;;;;;;;5329067;26;20228;-81
2024/04/18 04:37:11;;;;;;;9.50;7.37;;;;;;;;;;5348598;26;20268;-81
2024/04/18 04:40:15;;;;;;;9.07;7.30;;;;;;;;;;5328981;26;20768;-80
2024/04/18 04:43:45;;;;;;;11.20;7.57;;;;;;;;;;5328894;26;20575;-81
2024/04/18 04:47:10;;;;;;;9.30;7.13;;;;;;;;;;5334319;26;20627;-81
2024/04/18 04:50:40;;;;;;;10.27;7.73;;;;;;;;;;5351746;26;20275;-81
2024/04/18 04:53:51;;;;;;;9.23;7.50;;;;;;;;;;5352223;26;20220;-82
2024/04/18 04:57:16;;;;;;;10.67;7.90;;;;;;;;;;5352493;26;20619;-80
2024/04/18 05:00:21;;;;;;;10.07;7.67;;;;;;;;;;5352252;26;20283;-81
2024/04/18 05:03:36;;;;;;;11.03;7.83;;;;;;;;;;5351112;26;20276;-80
2024/04/18 05:06:59;;;;;;;11.07;8.20;;;;;;;;;;5350968;26;20764;-80
2024/04/18 05:10:03;;;;;;;11.00;8.47;;;;;;;;;;5354041;26;20316;-82
2024/04/18 05:13:08;;;;;;;8.80;7.53;;;;;;;;;;5353356;26;20225;-82
2024/04/18 05:16:12;;;;;;;13.33;8.33;;;;;;;;;;5352885;26;20271;-81
2024/04/18 05:19:21;;;;;;;10.47;8.40;;;;;;;;;;5352584;26;20219;-81
2024/04/18 05:22:25;;;;;;;12.57;8.77;;;;;;;;;;5352450;26;20768;-81
2024/04/18 05:25:30;;;;;;;10.67;8.17;;;;;;;;;;5331526;26;20717;-80
2024/04/18 05:32:15;;;;;;;10.27;8.07;;;;;;;;;;5350238;26;20279;-79
2024/04/18 05:35:40;;;;;;;9.90;7.87;;;;;;;;;;5350820;26;20776;-82
2024/04/18 05:38:44;;;;;;;11.67;7.70;;;;;;;;;;5351389;26;20279;-80
2024/04/18 05:41:48;;;;;;;9.90;7.67;;;;;;;;;;5351599;26;20283;-81
2024/04/18 05:45:18;;;;;;;10.63;7.83;;;;;;;;;;5351977;26;20265;-80
2024/04/18 05:48:41;;;;;;;9.87;7.00;;;;;;;;;;5352722;26;20287;-81
2024/04/18 05:51:47;;;;;;;10.03;8.07;;;;;;;;;;5331877;26;20613;-80
2024/04/18 05:55:07;;;;;;;10.57;7.77;;;;;;;;;;5315123;26;20212;-80
2024/04/18 05:58:17;;;;;;;10.80;8.30;;;;;;;;;;5331094;26;20613;-81
2024/04/18 06:01:45;;;;;;;15.20;9.33;;;;;;;;;;5336445;26;20282;-82
2024/04/18 06:04:50;;;;;;;9.37;7.33;;;;;;;;;;5331247;26;20279;-80
2024/04/18 06:08:14;;;;;;;9.70;7.10;;;;;;;;;;5351734;26;20275;-81
2024/04/18 06:11:18;;;;;;;8.50;6.67;;;;;;;;;;5330499;26;20797;-81
2024/04/18 06:14:22;;;;;;;7.73;6.57;;;;;;;;;;5330554;26;20228;-81
2024/04/18 06:17:28;;;;;;;8.50;5.97;;;;;;;;;;5350740;26;20233;-80
2024/04/18 06:20:42;;;;;;;7.47;5.90;;;;;;;;;;5350863;26;20613;-82
2024/04/18 06:23:47;;;;;;;11.33;6.93;;;;;;;;;;5330916;26;20275;-80
2024/04/18 06:26:58;;;;;;;7.37;6.10;;;;;;;;;;5312113;26;20286;-81
2024/04/18 06:30:09;;;;;;;8.57;6.67;;;;;;;;;;5332153;26;20812;-81
2024/04/18 06:33:14;;;;;;;9.03;7.30;;;;;;;;;;5311250;26;20272;-82
2024/04/18 06:36:18;;;;;;;9.10;6.70;;;;;;;;;;5350637;26;20224;-82
2024/04/18 06:43:19;;;;;;;9.03;6.83;;;;;;;;;;5350180;26;20562;-81
2024/04/18 06:46:35;;;;;;;7.97;6.10;;;;;;;;;;5311697;26;20572;-81
2024/04/18 06:49:47;;;;;;;7.00;5.73;;;;;;;;;;5330496;26;20284;-80
2024/04/18 06:52:54;;;;;;;7.63;6.00;;;;;;;;;;5330309;26;20228;-81
2024/04/18 06:56:05;;;;;;;6.97;5.70;;;;;;;;;;5311063;26;20772;-81
2024/04/18 06:59:11;;;;;;;6.83;5.90;;;;;;;;;;5311170;26;20225;-82
2024/04/18 07:03:15;;;;;;;9.63;6.63;;;;;;;;;;5294614;26;20280;-81
2024/04/18 07:06:28;;;;;;;8.87;6.00;;;;;;;;;;5313110;26;20225;-82
2024/04/18 07:09:42;;;;;;;5.90;5.30;;;;;;;;;;5349239;26;20804;-81
2024/04/18 07:12:55;;;;;;;7.57;5.73;;;;;;;;;;5334454;26;20566;-82
2024/04/18 07:16:01;;;;;;;7.20;5.93;;;;;;;;;;5331103;26;20214;-82
2024/04/18 07:19:24;;;;;;;6.97;5.53;;;;;;;;;;5334380;26;20280;-81
2024/04/18 07:22:31;;;;;;;7.80;6.10;;;;;;;;;;5330458;26;20326;-81
2024/04/18 07:25:37;;;;;;;7.37;6.27;;;;;;;;;;5330911;26;20584;-81
2024/04/18 07:33:25;;;;;;;7.00;6.00;;;;;;;;;;5349519;26;20228;-81
2024/04/18 07:36:30;;;;;;;10.13;7.73;;;;;;;;;;5309687;26;20225;-82
2024/04/18 07:39:44;;;;;;;7.10;5.87;;;;;;;;;;5329561;26;20788;-82
2024/04/18 07:42:49;;;;;;;7.63;6.20;;;;;;;;;;5329998;26;20228;-82
2024/04/18 07:45:53;;;;;;;9.50;6.10;;;;;;;;;;5309882;26;20263;-83
2024/04/18 07:49:01;;;;;;;8.23;6.50;;;;;;;;;;5330353;26;20212;-83
2024/04/18 07:52:12;;;;;;;8.43;5.67;;;;;;;;;;5329962;26;20229;-82
2024/04/18 07:55:19;;;;;;;7.70;6.33;;;;;;;;;;5309870;26;20271;-82
2024/04/18 07:58:37;;;;;;;6.70;5.57;;;;;;;;;;5329253;26;20232;-83
2024/04/18 08:01:49;;;;;;;7.70;5.43;;;;;;;;;;5330769;26;20225;-82
2024/04/18 08:05:04;;;;;;;14.70;8.83;;;;;;;;;;5309789;26;20268;-82
2024/04/18 08:08:12;;;;;;;6.07;5.07;;;;;;;;;;5329260;26;20220;-82
2024/04/18 08:11:19;;;;;;;6.50;4.80;;;;;;;;;;5310556;26;20283;-83
2024/04/18 08:14:23;;;;;;;6.57;4.97;;;;;;;;;;5329288;26;20724;-83
2024/04/18 08:17:28;;;;;;;7.33;5.20;;;;;;;;;;5328671;26;20236;-82
2024/04/18 08:20:32;;;;;;;7.93;5.43;;;;;;;;;;5328872;26;20345;-82
2024/04/18 08:23:36;;;;;;;7.23;4.87;;;;;;;;;;5352303;26;20224;-83
2024/04/18 08:26:45;;;;;;;5.87;5.00;;;;;;;;;;5332255;26;20224;-84
2024/04/18 08:33:21;;;;;;;10.10;5.10;;;;;;;;;;5353207;26;20272;-82
2024/04/18 08:36:31;;;;;;;5.70;4.83;;;;;;;;;;5353073;26;20232;-81
2024/04/18 08:39:35;;;;;;;7.03;6.10;;;;;;;;;;5352919;26;20279;-81
2024/04/18 08:42:39;;;;;;;5.70;4.53;;;;;;;;;;5331607;26;20264;-80
2024/04/18 08:45:43;;;;;;;8.03;4.90;;;;;;;;;;5351382;26;20279;-80
2024/04/18 08:48:55;;;;;;;6.10;5.00;;;;;;;;;;5331867;26;20566;-82
2024/04/18 08:52:00;;;;;;;6.90;5.50;;;;;;;;;;5351910;26;20570;-82
2024/04/18 08:55:04;;;;;;;7.03;5.70;;;;;;;;;;5351816;26;20279;-81
2024/04/18 08:58:10;;;;;;;5.40;4.77;;;;;;;;;;5352608;26;20271;-80
2024/04/18 09:01:15;;;;;;;7.60;4.67;;;;;;;;;;5352613;26;20280;-82
2024/04/18 09:04:20;;;;;;;6.00;5.40;;;;;;;;;;5352613;26;20232;-82
2024/04/18 09:07:25;;;;;;;7.17;4.93;;;;;;;;;;5331963;26;20228;-82
2024/04/18 09:10:30;;;;;;;6.60;4.53;;;;;;;;;;5353144;26;20284;-82
2024/04/18 09:13:34;;;;;;;6.17;4.50;;;;;;;;;;5354091;26;20562;-82
2024/04/18 09:16:38;;;;;;;5.73;4.70;;;;;;;;;;5354420;26;20217;-83
2024/04/18 09:19:43;;;;;;;6.30;4.83;;;;;;;;;;5376355;21;20272;-85
2024/04/18 09:22:48;;;;;;;6.23;4.77;;;;;;;;;;5281926;27;20285;-82
2024/04/18 09:25:54;;;;;;;4.90;4.40;;;;;;;;;;5281673;27;20243;-81
2024/04/18 09:28:58;;;;;;;4.73;3.90;;;;;;;;;;5300684;27;20219;-81
2024/04/18 09:32:03;;;;;;;4.90;3.70;;;;;;;;;;5282146;27;20277;-81
2024/04/18 09:35:11;;;;;;;5.90;4.53;;;;;;;;;;5281980;27;20270;-81
2024/04/18 09:38:22;;;;;;;5.60;3.80;;;;;;;;;;5282206;27;20218;-81
2024/04/18 09:41:31;;;;;;;6.37;3.60;;;;;;;;;;5281910;27;20289;-81
2024/04/18 09:44:36;;;;;;;4.60;4.07;;;;;;;;;;5261135;27;20274;-81
2024/04/18 09:47:41;;;;;;;7.23;5.53;;;;;;;;;;5281774;27;20222;-81
2024/04/18 09:50:46;;;;;;;4.17;3.60;;;;;;;;;;5281833;27;20266;-81
2024/04/18 09:53:51;;;;;;;4.07;3.60;;;;;;;;;;5281159;27;20270;-82
2024/04/18 09:56:58;;;;;;;5.53;3.67;;;;;;;;;;5281339;27;20695;-82
2024/04/18 10:00:03;;;;;;;3.63;3.10;;;;;;;;;;5299384;27;20766;-82
2024/04/18 10:03:16;;;;;;;4.10;3.40;;;;;;;;;;5302733;27;20278;-82
2024/04/18 10:06:29;;;;;;;4.60;3.50;;;;;;;;;;5281875;27;20715;-82
2024/04/18 10:09:35;;;;;;;5.03;3.70;;;;;;;;;;5299237;27;20262;-82
2024/04/18 10:12:40;;;;;;;3.70;3.40;;;;;;;;;;5280949;27;20231;-82
2024/04/18 10:15:45;;;;;;;6.77;4.23;;;;;;;;;;5281058;27;20269;-81
2024/04/18 10:18:49;;;;;;;6.70;4.53;;;;;;;;;;5281008;27;20230;-81
2024/04/18 10:21:56;;;;;;;5.10;4.07;;;;;;;;;;5280497;27;20285;-81
2024/04/18 10:25:00;;;;;;;3.20;2.63;;;;;;;;;;5280741;27;20274;-82
2024/04/18 10:28:22;;;;;;;3.37;2.70;;;;;;;;;;5280925;27;20234;-82
2024/04/18 10:31:29;;;;;;;3.77;2.63;;;;;;;;;;5280781;27;20294;-82
2024/04/18 10:34:33;;;;;;;3.50;2.30;;;;;;;;;;5299135;27;20739;-82
2024/04/18 10:37:54;;;;;;;2.47;1.97;;;;;;;;;;5280841;27;20227;-82
2024/04/18 10:41:02;;;;;;;3.70;2.10;;;;;;;;;;5280647;27;20278;-82
2024/04/18 10:44:07;;;;;;;2.03;1.83;;;;;;;;;;5280232;27;20266;-82
2024/04/18 10:47:12;;;;;;;2.97;2.50;;;;;;;;;;5284128;27;20274;-82
2024/04/18 10:50:16;;;;;;;3.90;2.70;;;;;;;;;;5284406;27;20264;-83
2024/04/18 10:53:21;;;;;;;3.63;2.53;;;;;;;;;;5282012;27;20223;-82
2024/04/18 10:56:26;;;;;;;3.63;2.27;;;;;;;;;;5283535;27;20274;-82
2024/04/18 10:59:31;;;;;;;2.87;2.57;;;;;;;;;;5281748;27;20227;-83
2024/04/18 11:02:35;;;;;;;2.77;2.27;;;;;;;;;;5301399;27;20230;-82
2024/04/18 11:05:42;;;;;;;2.10;1.80;;;;;;;;;;5281489;27;20230;-82
2024/04/18 11:09:01;;;;;;;2.80;1.70;;;;;;;;;;5282050;27;20623;-82
2024/04/18 11:12:06;;;;;;;3.80;2.70;;;;;;;;;;5282304;27;20230;-82
2024/04/18 11:15:10;;;;;;;2.53;2.20;;;;;;;;;;5281764;27;20222;-83
2024/04/18 11:18:15;;;;;;;2.43;1.80;;;;;;;;;;5280651;27;20222;-82
2024/04/18 11:21:20;;;;;;;1.80;1.30;;;;;;;;;;5281171;27;20283;-82
2024/04/18 11:24:24;;;;;;;1.80;1.30;;;;;;;;;;5280192;27;20223;-82
2024/04/18 11:27:27;;;;;;;1.40;1.20;;;;;;;;;;5280300;27;20230;-82
2024/04/18 11:30:31;;;;;;;1.57;1.20;;;;;;;;;;5280990;27;20297;-82
2024/04/18 11:33:37;;;;;;;2.60;1.33;;;;;;;;;;5281156;27;20560;-82
2024/04/18 11:36:42;;;;;;;1.80;1.30;;;;;;;;;;5280860;27;20234;-82
2024/04/18 11:39:46;;;;;;;1.43;1.20;;;;;;;;;;5280681;27;20273;-82
2024/04/18 11:42:51;;;;;;;3.33;2.00;;;;;;;;;;5278845;27;20557;-82
2024/04/18 11:45:55;;;;;;;2.93;1.43;;;;;;;;;;5279695;27;20269;-82
2024/04/18 11:48:59;;;;;;;3.20;1.07;;;;;;;;;;5259217;27;20222;-82
2024/04/18 11:52:04;;;;;;;1.30;1.03;;;;;;;;;;5279833;27;20214;-82
2024/04/18 11:55:08;;;;;;;2.13;1.00;;;;;;;;;;5279688;27;20278;-82
2024/04/18 11:58:15;;;;;;;1.10;1.00;;;;;;;;;;5279685;27;20568;-82
2024/04/18 12:01:19;;;;;;;1.43;1.10;;;;;;;;;;5279655;27;20778;-83
2024/04/18 12:04:23;;;;;;;1.97;1.50;;;;;;;;;;5279584;27;20227;-82
2024/04/18 12:07:28;;;;;;;3.53;1.33;;;;;;;;;;5279316;27;20226;-82
2024/04/18 12:10:33;;;;;;;2.40;1.23;;;;;;;;;;5279406;27;20635;-82
2024/04/18 12:13:40;;;;;;;1.40;1.10;;;;;;;;;;5279310;27;20222;-82
2024/04/18 12:17:00;;;;;;;1.97;1.27;;;;;;;;;;5278358;27;20286;-82
2024/04/18 12:20:19;;;;;;;3.00;2.70;;;;;;;;;;5278624;27;20273;-82
2024/04/18 12:23:24;;;;;;;1.70;1.40;;;;;;;;;;5279260;27;20269;-83
2024/04/18 12:26:41;;;;;;;2.07;1.70;;;;;;;;;;5278104;27;20222;-82
2024/04/18 12:29:47;;;;;;;2.73;2.03;;;;;;;;;;5279221;27;20715;-82
2024/04/18 12:32:51;;;;;;;17.27;15.73;;;;;;;;;;5284610;27;20274;-83
2024/04/18 12:36:02;;;;;;;3.53;2.13;;;;;;;;;;5282623;27;20604;-83
2024/04/18 12:39:10;;;;;;;2.47;1.50;;;;;;;;;;5280885;27;20223;-82
2024/04/18 12:42:15;;;;;;;1.77;1.50;;;;;;;;;;5282825;27;20222;-82
2024/04/18 12:45:19;;;;;;;1.40;1.30;;;;;;;;;;5280198;27;20223;-83
2024/04/18 12:48:23;;;;;;;3.17;1.80;;;;;;;;;;5281500;27;20234;-82
2024/04/18 12:51:34;;;;;;;2.30;2.00;;;;;;;;;;5281201;27;20286;-83
2024/04/18 12:54:38;;;;;;;2.67;1.90;;;;;;;;;;5281170;27;20218;-82
2024/04/18 12:57:43;;;;;;;5.50;2.30;;;;;;;;;;5280288;27;20211;-82
2024/04/18 13:01:08;;;;;;;3.80;2.33;;;;;;;;;;5280138;27;20294;-82
2024/04/18 13:04:16;;;;;;;4.33;2.30;;;;;;;;;;5279456;27;20234;-82
2024/04/18 13:07:26;;;;;;;3.00;2.47;;;;;;;;;;5279163;27;20282;-82
2024/04/18 13:10:50;;;;;;;3.37;2.60;;;;;;;;;;5282436;27;20285;-82
2024/04/18 13:14:03;;;;;;;4.53;2.50;;;;;;;;;;5281520;27;20226;-82
2024/04/18 13:17:07;;;;;;;5.30;3.27;;;;;;;;;;5282957;27;20258;-82
2024/04/18 13:20:23;;;;;;;9.33;3.33;;;;;;;;;;5282390;27;20620;-82
2024/04/18 13:23:27;;;;;;;3.70;2.97;;;;;;;;;;5282825;27;20260;-82
2024/04/18 13:26:31;;;;;;;6.07;3.20;;;;;;;;;;5281196;27;20227;-82
2024/04/18 13:29:54;;;;;;;4.20;3.07;;;;;;;;;;5281245;27;20219;-82
2024/04/18 13:33:11;;;;;;;4.00;2.87;;;;;;;;;;5281088;27;20292;-82
2024/04/18 13:36:15;;;;;;;6.20;2.70;;;;;;;;;;5300077;27;20233;-82
2024/04/18 13:39:33;;;;;;;3.60;2.67;;;;;;;;;;5281273;27;20274;-82
2024/04/18 13:42:43;;;;;;;3.33;3.03;;;;;;;;;;5281565;27;20222;-82
2024/04/18 13:46:05;;;;;;;4.30;2.50;;;;;;;;;;5281332;27;20269;-82
2024/04/18 13:49:09;;;;;;;5.73;4.70;;;;;;;;;;5281322;27;20654;-82
2024/04/18 13:52:42;;;;;;;6.27;4.37;;;;;;;;;;5280909;27;20227;-82
2024/04/18 13:55:48;;;;;;;5.37;4.77;;;;;;;;;;5281220;27;20266;-82
2024/04/18 13:58:53;;;;;;;3.50;3.03;;;;;;;;;;5281133;27;20570;-82
2024/04/18 14:02:08;;;;;;;5.13;4.60;;;;;;;;;;5280760;27;20278;-82
2024/04/18 14:05:19;;;;;;;4.07;2.90;;;;;;;;;;5299840;27;20227;-82
2024/04/18 14:08:41;;;;;;;4.33;3.03;;;;;;;;;;5280703;27;20278;-82
2024/04/18 14:12:04;;;;;;;5.13;3.93;;;;;;;;;;5280171;27;20219;-82
2024/04/18 14:15:27;;;;;;;3.50;3.20;;;;;;;;;;5281104;27;20711;-82
2024/04/18 14:18:53;;;;;;;4.17;2.67;;;;;;;;;;5282095;27;20274;-82
2024/04/18 14:22:15;;;;;;;4.13;2.70;;;;;;;;;;5283412;27;20231;-82
2024/04/18 14:25:19;;;;;;;4.10;3.70;;;;;;;;;;5283120;27;20611;-82
2024/04/18 14:28:43;;;;;;;3.60;3.20;;;;;;;;;;5282436;27;20231;-82
2024/04/18 14:31:56;;;;;;;5.73;2.97;;;;;;;;;;5282994;27;20349;-82
2024/04/18 14:35:04;;;;;;;3.77;3.10;;;;;;;;;;5282071;27;20285;-82
2024/04/18 14:38:09;;;;;;;12.63;10.43;;;;;;;;;;5282575;27;20727;-82
2024/04/18 14:41:14;;;;;;;7.40;5.10;;;;;;;;;;5281160;27;20281;-82
2024/04/18 14:44:18;;;;;;;4.90;3.47;;;;;;;;;;5280724;27;20226;-82
2024/04/18 14:47:22;;;;;;;5.43;4.13;;;;;;;;;;5300517;27;20277;-82
2024/04/18 14:50:33;;;;;;;5.13;4.63;;;;;;;;;;5279763;27;20278;-81
2024/04/18 14:53:40;;;;;;;3.30;2.80;;;;;;;;;;5281688;27;20724;-81
2024/04/18 14:56:45;;;;;;;2.60;2.37;;;;;;;;;;5281741;27;20226;-82
2024/04/18 15:00:09;;;;;;;2.83;2.07;;;;;;;;;;5281101;27;20281;-81
2024/04/18 15:03:14;;;;;;;4.73;2.83;;;;;;;;;;5281317;27;20587;-83
2024/04/18 15:06:19;;;;;;;3.77;2.90;;;;;;;;;;5281389;27;20250;-83
2024/04/18 15:09:43;;;;;;;3.57;2.50;;;;;;;;;;5280756;27;20270;-82
2024/04/18 15:12:49;;;;;;;2.53;1.80;;;;;;;;;;5280502;27;20227;-82
2024/04/18 15:15:53;;;;;;;1.60;1.47;;;;;;;;;;5281700;27;20270;-84
2024/04/18 15:18:59;;;;;;;1.73;1.50;;;;;;;;;;5280108;27;20226;-82
2024/04/18 15:22:07;;;;;;;1.93;1.63;;;;;;;;;;5358671;21;20339;-82
2024/04/18 15:25:20;;;;;;;2.43;1.87;;;;;;;;;;5311677;26;20762;-82
2024/04/18 15:28:25;;;;;;;3.07;1.53;;;;;;;;;;5309511;26;20236;-81
2024/04/18 15:31:29;;;;;;;4.17;2.70;;;;;;;;;;5290964;27;20277;-81
2024/04/18 15:34:36;;;;;;;2.97;2.40;;;;;;;;;;5275174;27;20805;-81
2024/04/18 15:37:41;;;;;;;4.37;2.43;;;;;;;;;;5294769;27;20610;-82
2024/04/18 15:40:45;;;;;;;1.93;1.73;;;;;;;;;;5274942;27;20281;-80
2024/04/18 15:43:49;;;;;;;3.40;2.10;;;;;;;;;;5313349;27;20229;-82
2024/04/18 15:47:12;;;;;;;2.23;1.70;;;;;;;;;;5298625;27;20849;-83
2024/04/18 15:50:23;;;;;;;5.73;3.57;;;;;;;;;;5295288;27;20225;-83
2024/04/18 15:53:32;;;;;;;3.50;2.77;;;;;;;;;;5275128;27;20226;-83
2024/04/18 15:56:45;;;;;;;8.57;4.40;;;;;;;;;;5295743;27;20281;-83
2024/04/18 16:00:08;;;;;;;6.07;4.40;;;;;;;;;;5279031;27;20562;-83
2024/04/18 16:03:16;;;;;;;32.57;18.03;;;;;;;;;;5295479;27;20225;-83
2024/04/18 16:06:29;;;;;;;6.90;4.70;;;;;;;;;;5295875;27;20240;-83
2024/04/18 16:09:52;;;;;;;5.73;3.97;;;;;;;;;;5278433;27;20610;-82
2024/04/18 16:12:59;;;;;;;4.60;2.77;;;;;;;;;;5313329;27;20225;-82
2024/04/18 16:16:04;;;;;;;24.40;12.77;;;;;;;;;;5274790;27;20280;-83
2024/04/18 16:19:15;;;;;;;7.40;4.20;;;;;;;;;;5313423;27;20229;-82
2024/04/18 16:22:19;;;;;;;7.73;3.67;;;;;;;;;;5275006;27;20277;-82
2024/04/18 16:25:24;;;;;;;15.60;8.07;;;;;;;;;;5275355;27;20776;-82
2024/04/18 16:28:29;;;;;;;7.87;5.47;;;;;;;;;;5313645;27;20311;-83
2024/04/18 16:31:39;;;;;;;30.03;13.20;;;;;;;;;;5275786;27;20280;-82
2024/04/18 16:34:55;;;;;;;5.73;4.43;;;;;;;;;;5296278;27;20712;-83
2024/04/18 16:38:09;;;;;;;1.63;1.53;;;;;;;;;;5295411;27;20222;-83
2024/04/18 16:41:28;;;;;;;4.70;4.30;;;;;;;;;;5293418;27;20273;-83
2024/04/18 16:44:32;;;;;;;6.37;4.73;;;;;;;;;;5315844;27;20214;-83
2024/04/18 16:47:45;;;;;;;7.50;4.00;;;;;;;;;;5299074;27;20229;-82
2024/04/18 16:50:50;;;;;;;7.43;4.17;;;;;;;;;;5277603;27;20631;-83
2024/04/18 16:53:55;;;;;;;120.67;54.43;;;;;;;;;;5277937;27;20276;-84
2024/04/18 16:56:59;;;;;;;63.40;33.70;;;;;;;;;;5317601;27;20229;-83
2024/04/18 17:00:22;;;;;;;80.83;41.17;;;;;;;;;;5281780;27;20281;-83
2024/04/18 17:03:46;;;;;;;9.27;6.83;;;;;;;;;;5317183;27;20225;-83
2024/04/18 17:07:08;;;;;;;10.53;7.10;;;;;;;;;;5280904;27;20230;-83
2024/04/18 17:10:31;;;;;;;5.20;4.70;;;;;;;;;;5300772;27;20266;-82
2024/04/18 17:13:53;;;;;;;2.17;1.70;;;;;;;;;;5301087;27;20214;-80
2024/04/18 17:16:58;;;;;;;3.50;3.20;;;;;;;;;;5316269;27;20280;-80
2024/04/18 17:20:03;;;;;;;4.20;3.07;;;;;;;;;;5297202;27;20782;-80
2024/04/18 17:23:07;;;;;;;4.10;2.83;;;;;;;;;;5317234;27;20229;-81
2024/04/18 17:26:11;;;;;;;4.10;3.03;;;;;;;;;;5297028;27;20226;-79
2024/04/18 17:29:16;;;;;;;3.13;2.80;;;;;;;;;;5297602;27;20229;-80
2024/04/18 17:32:23;;;;;;;4.53;2.73;;;;;;;;;;5316288;27;20293;-80
2024/04/18 17:35:27;;;;;;;2.47;2.20;;;;;;;;;;5277996;27;20234;-80
2024/04/18 17:38:49;;;;;;;3.93;2.83;;;;;;;;;;5297042;27;20243;-79
2024/04/18 17:42:06;;;;;;;4.27;2.90;;;;;;;;;;5281101;27;20782;-79
2024/04/18 17:45:30;;;;;;;3.80;2.60;;;;;;;;;;5317458;27;20257;-80
2024/04/18 17:48:53;;;;;;;3.03;2.47;;;;;;;;;;5316680;27;20285;-80
2024/04/18 17:51:58;;;;;;;4.90;2.50;;;;;;;;;;5278000;27;20624;-79
2024/04/18 17:55:03;;;;;;;2.93;2.43;;;;;;;;;;5316600;27;20221;-81
2024/04/18 17:58:08;;;;;;;3.97;3.03;;;;;;;;;;5316090;27;20233;-81
2024/04/18 18:01:12;;;;;;;2.70;2.50;;;;;;;;;;5296603;27;20305;-83
2024/04/18 18:04:36;;;;;;;2.97;2.40;;;;;;;;;;5302319;27;20557;-82
2024/04/18 18:07:42;;;;;;;2.70;2.30;;;;;;;;;;5298121;27;20284;-82
2024/04/18 18:10:46;;;;;;;2.90;2.60;;;;;;;;;;5277956;27;20285;-81
2024/04/18 18:13:51;;;;;;;2.30;2.10;;;;;;;;;;5297153;27;20273;-80
2024/04/18 18:16:57;;;;;;;2.47;2.20;;;;;;;;;;5337001;26;20221;-80
2024/04/18 18:20:02;;;;;;;2.97;1.90;;;;;;;;;;5296595;27;20281;-80
2024/04/18 18:23:28;;;;;;;2.40;2.20;;;;;;;;;;5280860;27;20214;-79
2024/04/18 18:26:33;;;;;;;2.73;1.80;;;;;;;;;;5296686;27;20550;-80
2024/04/18 18:29:37;;;;;;;2.80;1.90;;;;;;;;;;5277382;27;20735;-80
2024/04/18 18:32:44;;;;;;;3.00;2.43;;;;;;;;;;5278173;27;20558;-80
2024/04/18 18:35:48;;;;;;;2.60;2.40;;;;;;;;;;5278344;27;20269;-82
2024/04/18 18:38:53;;;;;;;3.20;2.60;;;;;;;;;;5296698;27;20562;-81
2024/04/18 18:41:57;;;;;;;4.80;2.70;;;;;;;;;;5276948;27;20292;-81
2024/04/18 18:45:02;;;;;;;3.07;2.73;;;;;;;;;;5296017;27;20217;-81
2024/04/18 18:48:06;;;;;;;3.00;2.63;;;;;;;;;;5315673;27;20225;-82
2024/04/18 18:51:10;;;;;;;3.43;2.50;;;;;;;;;;5276490;27;20276;-81
2024/04/18 18:54:15;;;;;;;2.87;2.57;;;;;;;;;;5276836;27;20229;-81
2024/04/18 18:57:19;;;;;;;2.90;2.53;;;;;;;;;;5297181;27;20229;-81
2024/04/18 19:00:27;;;;;;;3.00;2.47;;;;;;;;;;5276879;27;20233;-81
2024/04/18 19:03:47;;;;;;;3.53;2.40;;;;;;;;;;5296400;27;20568;-83
2024/04/18 19:06:52;;;;;;;2.57;2.20;;;;;;;;;;5276151;27;20229;-81